Latest Weather Observations for Wilsons Promontory

IDV60801

Issued at 6:35 pm EDT Friday 24 October 2014 (issued every 30 minutes, with the page automatically refreshed every 10 minutes)

About weather observations | Map of weather stations | Latest weather observations for VIC | Other Formats
Station Details ID: 085096 Name: WILSONS PROMONTORY LIGHTHOUSE Lat: -39.13 Lon: 146.42 Height: 95.0 m
Data from the previous 72 hours. | See also: Recent months at Wilsons Promontory
Date/Time
EDT
Temp
°C
App
Temp
°C
Dew
Point
Rel
Hum
%
Delta-T
°C
Wind Press
QNH
hPa
Press
MSL
hPa
Rain
since 9 am
mm
Dir
 
Spd
km/h
Gust
km/h
Spd
kts
Gust
kts
24/06:30pm 18.7 13.3 12.7 68 3.4 W 33 46 18 25 1009.9 - 0.0
24/06:15pm 19.1 14.2 12.6 66 3.7 W 30 48 16 26 1010.1 - 0.0
24/06:00pm 19.5 14.6 12.5 64 3.9 W 30 44 16 24 1009.8 1009.8 0.0
24/05:45pm 19.5 15.0 12.7 65 3.8 W 28 46 15 25 1010.1 - 0.0
24/05:30pm 20.3 15.5 12.8 62 4.3 W 30 44 16 24 1009.8 - 0.0
24/05:00pm 20.9 16.6 14.3 66 3.9 WNW 30 50 16 27 1009.8 - 0.0
24/04:50pm 21.1 17.2 14.5 66 3.9 W 28 46 15 25 1009.6 - 0.0
24/04:30pm 21.5 22.0 19.2 87 1.5 W 15 33 8 18 1009.6 - 0.0
24/04:00pm 20.5 20.8 19.5 94 0.6 W 17 35 9 19 1009.8 - 0.0
24/03:30pm 18.0 18.8 17.2 95 0.5 W 9 26 5 14 1009.7 - 0.0
24/03:00pm 16.0 14.5 15.4 96 0.4 NE 17 19 9 10 1009.6 1009.6 0.0
24/02:30pm 16.0 14.5 15.2 95 0.5 NE 17 20 9 11 1009.9 - 0.0
24/02:00pm 16.5 15.2 15.9 96 0.4 NE 17 20 9 11 1010.3 - 0.0
24/01:30pm 16.2 14.4 15.6 96 0.4 NNE 19 20 10 11 1010.5 - 0.0
24/01:00pm 15.9 13.5 15.4 97 0.3 NE 22 28 12 15 1010.6 - 0.0
24/12:30pm 15.8 11.8 15.3 97 0.3 NE 30 33 16 18 1010.7 - 0.0
24/12:00pm 15.8 12.2 15.3 97 0.3 NNE 28 32 15 17 1011.2 1011.2 0.0
24/11:30am 15.7 11.1 15.2 97 0.3 NNE 33 37 18 20 1011.4 - 0.0
24/11:00am 15.2 10.6 14.7 97 0.3 NNE 32 37 17 20 1012.0 - 0.0
24/10:30am 15.2 10.1 14.7 97 0.3 NNE 35 41 19 22 1012.2 - 0.0
24/10:00am 15.0 9.8 14.5 97 0.3 NE 35 41 19 22 1012.6 - 0.0
24/09:30am 14.8 8.8 14.3 97 0.3 NE 39 44 21 24 1012.7 - 0.0
24/09:00am 14.7 8.3 14.2 97 0.3 NE 41 46 22 25 1013.0 1013.0 0.8
24/08:30am 14.7 7.7 14.2 97 0.3 NE 44 50 24 27 1013.2 - 0.8
24/08:00am 14.7 7.3 14.2 97 0.3 NE 46 56 25 30 1013.3 - 0.6
24/07:30am 14.6 6.8 14.1 97 0.3 NE 48 52 26 28 1013.6 - 0.6
24/07:00am 14.5 5.9 14.0 97 0.3 NE 52 61 28 33 1013.6 - 0.4
24/06:30am 14.5 5.5 14.0 97 0.3 NE 54 63 29 34 1013.6 - 0.4
24/06:00am 14.5 4.2 13.9 96 0.3 ENE 61 70 33 38 1013.3 1013.3 0.4
24/05:30am 14.4 3.6 13.8 96 0.3 ENE 63 72 34 39 1013.3 - 0.4
24/05:00am 14.3 3.5 13.7 96 0.3 ENE 63 70 34 38 1013.6 - 0.4
24/04:30am 14.3 2.7 13.7 96 0.3 ENE 67 78 36 42 1013.5 - 0.2
24/04:00am 14.1 3.2 13.5 96 0.3 ENE 63 72 34 39 1013.8 - 0.2
24/03:30am 14.0 2.7 13.4 96 0.3 ENE 65 74 35 40 1014.5 - 0.2
24/03:00am 13.8 2.8 13.0 95 0.4 ENE 63 72 34 39 1015.2 1015.2 0.2
24/02:30am 13.7 0.9 12.9 95 0.4 ENE 72 82 39 44 1015.2 - 0.2
24/02:00am 13.5 1.6 12.6 94 0.5 ENE 67 74 36 40 1016.1 - 0.0
24/01:30am 13.5 1.0 12.4 93 0.6 ENE 70 83 38 45 1016.7 - 0.0
24/01:00am 13.6 0.6 12.2 91 0.8 ENE 72 83 39 45 1017.0 - 0.0
24/12:30am 13.7 -0.1 11.9 89 1.0 ENE 76 85 41 46 1017.3 - 0.0
24/12:00am 13.6 -0.7 11.8 89 1.0 ENE 78 87 42 47 1017.5 1017.5 0.0
 
Date/Time
EDT
Temp
°C
App
Temp
°C
Dew
Point
Rel
Hum
%
Delta-T
°C
Wind Press
QNH
hPa
Press
MSL
hPa
Rain
since 9 am
mm
Dir
 
Spd
km/h
Gust
km/h
Spd
kts
Gust
kts
23/11:30pm 13.6 0.2 12.0 90 0.9 ENE 74 85 40 46 1017.8 - 0.0
23/11:00pm 13.5 0.7 11.7 89 1.0 ENE 70 80 38 43 1018.3 - 0.0
23/10:30pm 13.5 0.0 11.7 89 1.0 ENE 74 82 40 44 1018.5 - 0.0
23/10:00pm 13.5 0.7 11.6 88 1.0 ENE 70 80 38 43 1019.0 - 0.0
23/09:30pm 13.5 0.8 11.4 87 1.1 ENE 69 76 37 41 1019.3 - 0.0
23/09:00pm 13.5 0.8 11.4 87 1.1 ENE 69 80 37 43 1019.4 1019.4 0.0
23/08:30pm 13.4 -0.3 11.1 86 1.2 ENE 74 83 40 45 1019.3 - 0.0
23/08:00pm 13.3 0.0 11.0 86 1.2 ENE 72 80 39 43 1019.2 - 0.0
23/07:30pm 13.3 -0.1 10.8 85 1.3 ENE 72 80 39 43 1019.1 - 0.0
23/07:00pm 13.4 0.0 10.9 85 1.3 ENE 72 82 39 44 1018.8 - 0.0
23/06:30pm 13.4 1.0 10.9 85 1.3 ENE 67 80 36 43 1019.0 - 0.0
23/06:00pm 13.3 1.2 10.8 85 1.3 ENE 65 74 35 40 1019.2 1019.2 0.0
23/05:30pm 13.5 1.8 10.9 84 1.4 ENE 63 74 34 40 1019.2 - 0.0
23/05:00pm 13.5 1.1 10.9 84 1.4 ENE 67 76 36 41 1019.3 - 0.0
23/04:30pm 13.7 1.7 11.0 84 1.4 ENE 65 72 35 39 1019.4 - 0.0
23/04:00pm 13.6 2.4 11.1 85 1.3 ENE 61 70 33 38 1019.4 - 0.0
23/03:30pm 13.9 3.2 11.6 86 1.2 ENE 59 67 32 36 1019.7 - 0.0
23/03:00pm 13.8 3.1 11.5 86 1.2 ENE 59 69 32 37 1019.9 1019.9 0.0
23/02:30pm 13.9 4.5 11.6 86 1.2 ENE 52 59 28 32 1020.4 - 0.0
23/02:00pm 13.9 4.1 11.6 86 1.2 ENE 54 67 29 36 1020.7 - 0.0
23/01:30pm 13.9 4.6 11.8 87 1.1 ENE 52 61 28 33 1020.8 - 0.0
23/01:00pm 13.8 6.0 11.7 87 1.1 ENE 44 52 24 28 1021.1 - 0.0
23/12:30pm 14.0 6.2 11.9 87 1.1 ENE 44 54 24 29 1021.2 - 0.0
23/12:00pm 13.8 4.5 11.7 87 1.1 E 52 59 28 32 1021.3 1021.3 0.0
23/11:30am 14.1 6.4 12.0 87 1.1 ENE 44 52 24 28 1021.5 - 0.0
23/11:00am 14.2 8.6 12.2 88 1.1 ENE 33 39 18 21 1021.4 - 0.0
23/10:30am 14.1 8.1 12.1 88 1.1 ENE 35 43 19 23 1021.4 - 0.0
23/10:00am 14.2 6.8 12.4 89 1.0 ENE 43 52 23 28 1021.1 - 0.0
23/09:30am 14.0 7.0 12.4 90 0.9 ENE 41 48 22 26 1020.8 - 0.0
23/09:00am 14.0 7.7 12.4 90 0.9 ENE 37 43 20 23 1020.5 1020.5 1.2
23/08:30am 14.1 8.2 12.5 90 0.9 NE 35 41 19 22 1020.4 - 1.2
23/08:00am 14.2 8.7 12.4 89 1.0 NE 33 39 18 21 1020.3 - 1.2
23/07:30am 14.5 9.9 12.4 87 1.1 NE 28 35 15 19 1019.8 - 1.2
23/07:00am 14.7 11.7 12.6 87 1.2 NE 20 26 11 14 1019.1 - 1.2
23/06:30am 14.3 12.9 12.3 88 1.1 NNE 11 17 6 9 1018.6 - 1.2
23/06:00am 13.9 11.6 11.9 88 1.1 W 15 17 8 9 1018.3 1018.3 1.2
23/05:30am 14.2 12.0 12.2 88 1.1 WSW 15 22 8 12 1017.9 - 1.2
23/05:00am 14.1 12.3 12.1 88 1.1 WSW 13 19 7 10 1017.4 - 1.2
23/04:30am 13.9 10.7 11.9 88 1.1 W 20 26 11 14 1016.8 - 1.2
23/04:00am 14.1 9.4 12.0 87 1.1 W 28 33 15 18 1016.3 - 1.2
23/03:30am 14.5 9.7 11.6 83 1.6 WSW 28 35 15 19 1016.0 - 1.2
23/03:00am 15.0 9.8 11.6 80 1.8 WSW 30 39 16 21 1016.1 1016.2 1.2
23/02:30am 15.8 11.6 11.2 74 2.5 W 24 30 13 16 1016.5 - 1.2
23/02:00am 16.3 10.5 11.5 73 2.6 W 33 43 18 23 1016.6 - 1.2
23/01:30am 17.1 11.0 11.8 71 2.9 W 35 46 19 25 1016.9 - 1.2
23/01:00am 18.6 12.5 13.0 70 3.2 W 37 44 20 24 1016.5 - 1.2
23/12:30am 19.8 14.7 13.0 65 3.9 WNW 32 41 17 22 1016.4 - 1.2
23/12:00am 20.6 17.8 13.1 62 4.3 W 20 26 11 14 1015.6 1015.6 1.2
 
Date/Time
EDT
Temp
°C
App
Temp
°C
Dew
Point
Rel
Hum
%
Delta-T
°C
Wind Press
QNH
hPa
Press
MSL
hPa
Rain
since 9 am
mm
Dir
 
Spd
km/h
Gust
km/h
Spd
kts
Gust
kts
22/11:30pm 20.3 19.4 13.7 66 3.8 N 11 28 6 15 1015.8 - 1.2
22/11:16pm 19.8 14.9 13.7 68 3.5 WNW 32 50 17 27 1016.0 - 1.2
22/11:00pm 20.3 15.0 14.2 68 3.6 WNW 35 46 19 25 1016.3 - 0.6
22/10:32pm 19.6 14.9 11.9 61 4.3 W 28 50 15 27 1015.8 - 0.0
22/10:30pm 20.2 16.2 11.7 58 4.7 W 24 39 13 21 1015.8 - 0.0
22/10:00pm 19.3 14.9 11.8 62 4.2 NNE 26 30 14 16 1015.5 - 0.0
22/09:30pm 19.2 14.8 11.7 62 4.2 NNE 26 35 14 19 1015.1 - 0.0
22/09:00pm 22.5 22.0 10.6 47 6.6 NNW 4 11 2 6 1016.5 1016.5 0.0
22/08:30pm 20.7 16.7 10.5 52 5.6 NNE 22 24 12 13 1015.5 - 0.0
22/08:00pm 18.5 14.6 12.0 66 3.6 NNE 24 26 13 14 1015.0 - 0.0
22/07:30pm 22.2 21.4 11.0 49 6.2 N 6 13 3 7 1015.6 - 0.0
22/07:00pm 20.8 16.5 12.0 57 4.9 N 26 35 14 19 1015.0 - 0.0
22/06:30pm 20.8 18.3 11.2 54 5.3 NNE 15 20 8 11 1015.1 - 0.0
22/06:00pm 20.5 17.6 13.0 62 4.3 NNE 20 22 11 12 1015.3 1015.3 0.0
22/05:30pm 18.1 15.5 14.8 81 1.9 NNE 22 26 12 14 1015.1 - 0.0
22/05:00pm 16.5 12.4 13.8 84 1.5 NNE 28 30 15 16 1015.0 - 0.0
22/04:30pm 16.9 12.3 13.6 81 1.9 NNE 30 32 16 17 1015.0 - 0.0
22/04:00pm 17.5 14.2 14.0 80 2.0 NNE 24 26 13 14 1015.5 - 0.0
22/03:30pm 17.7 15.1 13.8 78 2.2 NNE 20 22 11 12 1015.9 - 0.0
22/03:00pm 18.3 16.1 13.4 73 2.8 NNE 17 20 9 11 1016.4 1016.4 0.0
22/02:30pm 19.3 18.2 13.2 68 3.5 NNE 11 15 6 8 1016.9 - 0.0
22/02:00pm 19.1 18.3 14.1 73 2.9 N 11 13 6 7 1017.3 - 0.0
22/01:30pm 17.6 15.9 13.5 77 2.3 NNE 15 19 8 10 1017.5 - 0.0
22/01:00pm 18.2 17.3 13.7 75 2.6 N 11 15 6 8 1017.9 - 0.0
22/12:30pm 17.9 16.6 13.6 76 2.4 N 13 19 7 10 1018.1 - 0.0
22/12:00pm 17.7 15.8 13.0 74 2.6 NNE 15 19 8 10 1018.4 1018.4 0.0
22/11:30am 18.7 17.1 12.7 68 3.4 NNE 13 17 7 9 1018.8 - 0.0
22/11:00am 18.8 18.5 13.4 71 3.1 NNE 7 11 4 6 1019.2 - 0.0
22/10:30am 18.6 18.8 13.2 71 3.1 NNE 4 7 2 4 1019.6 - 0.0
22/10:00am 17.2 17.1 12.1 72 2.8 ESE 4 7 2 4 1019.7 - 0.0
22/09:30am 18.0 17.4 14.5 80 2.0 NNE 11 17 6 9 1019.6 - 0.0
22/09:00am 16.3 13.4 14.0 86 1.3 NNE 22 26 12 14 1019.2 1019.2 0.0
22/08:30am 15.6 12.2 13.8 89 1.0 NNE 24 26 13 14 1019.3 - 0.0
22/08:00am 15.0 11.2 13.5 91 0.8 NNE 26 28 14 15 1019.4 - 0.0
22/07:30am 14.0 9.1 12.7 92 0.7 NNE 30 32 16 17 1019.4 - 0.0
22/07:00am 13.5 8.9 12.2 92 0.7 NNE 28 32 15 17 1019.5 - 0.0
22/06:30am 13.2 8.1 11.9 92 0.7 NNE 30 33 16 18 1019.6 - 0.0
22/06:00am 13.1 7.4 11.8 92 0.7 NNE 33 37 18 20 1019.5 1019.5 0.0
22/05:30am 13.1 7.4 11.7 91 0.7 NNE 33 39 18 21 1019.4 - 0.0
22/05:00am 13.1 7.0 11.7 91 0.7 NNE 35 39 19 21 1019.6 - 0.0
22/04:30am 13.0 6.5 11.6 91 0.7 NNE 37 41 20 22 1019.8 - 0.0
22/04:00am 13.0 6.8 11.4 90 0.9 NNE 35 43 19 23 1020.2 - 0.0
22/03:30am 13.1 7.3 11.5 90 0.9 NNE 33 44 18 24 1020.5 - 0.0
22/03:00am 13.1 7.3 11.5 90 0.8 NNE 33 43 18 23 1021.1 1021.1 0.0
22/02:30am 13.1 7.2 11.3 89 1.0 NNE 33 43 18 23 1021.4 - 0.0
22/02:00am 13.2 7.0 11.4 89 1.0 NNE 35 46 19 25 1022.0 - 0.0
22/01:30am 13.2 7.0 11.4 89 1.0 NNE 35 50 19 27 1022.4 - 0.0
22/01:00am 13.2 7.4 11.4 89 1.0 NNE 33 43 18 23 1023.1 - 0.0
22/12:30am 13.3 7.1 11.4 88 1.0 NNE 35 44 19 24 1023.6 - 0.0
22/12:00am 13.3 7.1 11.4 88 1.0 NNE 35 46 19 25 1024.0 1024.0 0.0
 
Date/Time
EDT
Temp
°C
App
Temp
°C
Dew
Point
Rel
Hum
%
Delta-T
°C
Wind Press
QNH
hPa
Press
MSL
hPa
Rain
since 9 am
mm
Dir
 
Spd
km/h
Gust
km/h
Spd
kts
Gust
kts
21/11:30pm 13.3 7.0 11.2 87 1.1 NNE 35 46 19 25 1024.3 - 0.0
21/11:00pm 13.3 7.4 11.0 86 1.2 NNE 33 44 18 24 1024.7 - 0.0
21/10:30pm 13.3 6.9 10.8 85 1.3 NNE 35 46 19 25 1024.9 - 0.0
21/10:00pm 13.3 6.2 10.8 85 1.3 NNE 39 46 21 25 1025.2 - 0.0
21/09:30pm 13.5 5.6 10.9 84 1.4 NE 43 52 23 28 1025.3 - 0.0
21/09:00pm 13.5 5.0 10.7 83 1.5 NE 46 56 25 30 1025.3 1025.4 0.0
21/08:30pm 13.5 5.0 10.5 82 1.6 NE 46 56 25 30 1025.3 - 0.0
21/08:00pm 13.5 5.3 10.3 81 1.7 NE 44 52 24 28 1025.4 - 0.0
21/07:30pm 13.6 4.6 10.4 81 1.7 NE 48 57 26 31 1025.3 - 0.0
21/07:00pm 13.6 4.2 10.2 80 1.8 NE 50 59 27 32 1025.1 - 0.0

Other Formats:

Comma delimited format used in spreadsheet applications
http://www.bom.gov.au/fwo/IDV60801/IDV60801.94893.axf

JavaScript Object Notation format (JSON) in row-major order
http://www.bom.gov.au/fwo/IDV60801/IDV60801.94893.json